Acme, PA (15610)

10:23 PM EDT on August 30, 2015 (GMT -0400)
Mount Joy | | Change Station
CLOSE
Current Station
Personal Weather Station
Location: Mount Pleasant, PA
Elevation: 1158 ft
Nearby Weather Stations

Elev 1158 ft 40.15 °N, 79.50 °W | Updated 3 seconds ago

Overcast
Overcast
71.2 °F
Feels Like 71.2 °F
N
0.0
Wind Variable Wind from SSE
Gusts 0.0 mph

Today
High -- | Low -- °F
--% Chance of Precip.
Yesterday
High -- | Low -- °F
Precip. -- in
6:43 AM 7:52 PM
Full, 97% visible
Pressure 30.12 in
Visibility 10.0 miles
Clouds Mostly Cloudy 13000 ft
Dew Point 67 °F
Humidity 87%
Rainfall 0.00 in
Snow Depth Not available.
UV 0.0 out of 12
Pollen 9.70 out of 12
Air Quality Not available.
Flu Activity Not available.
METAR KLBE 310150Z 00000KT 10SM BKN130 22/20 A3012 RMK LAST
Pressure 30.12 in
Visibility 10.0 miles
Clouds Mostly Cloudy 13000 ft
Dew Point 67 °F
Humidity 87%
Rainfall 0.00 in
Snow Depth Not available.
UV 0.0 out of 12
Pollen 9.70 out of 12
Air Quality Not available.
Flu Activity Not available.
METAR KLBE 310150Z 00000KT 10SM BKN130 22/20 A3012 RMK LAST

10-Day Weather Forecast

×

Almanac

Astronomy

Aug. 30, 2015 Rise Set
Actual Time
Civil Twilight
Nautical Twilight
Astronomical Twilight
Moon
Length of Visible Light
Length of Day
Tomorrow will be .
, % of the Moon is Illuminated

Today's Extremes

State Highs State Lows

Community

WunderPhotos

Upload Photos

1,851,157 photos uploaded!

WunderBlogs® & News

Nearby

Air Quality

  Air Quality AQ Index Pollutant
Not available.

Snow Depth

Station Depth Elevation

Earthquake Activity

City Distance Mag. Time & Date
Minimum magnitude displayed is 2.5.

Coastal Water Temperatures

Place Temperature

Stations

Nearby Weather Stations

Station Location Temp. Windchill Dew Point Humidity Wind Precip. Elev Updated Type